sensor_id;sensor_type;location;lat;lon;timestamp;temperature;humidity
7077;DHT22;3579;48.956;9.154;2023-04-24T00:00:11;20.40;53.30
7077;DHT22;3579;48.956;9.154;2023-04-24T00:02:41;20.30;53.20
7077;DHT22;3579;48.956;9.154;2023-04-24T00:05:13;20.30;53.20
7077;DHT22;3579;48.956;9.154;2023-04-24T00:07:43;20.30;53.30
7077;DHT22;3579;48.956;9.154;2023-04-24T00:10:10;20.30;53.30
7077;DHT22;3579;48.956;9.154;2023-04-24T00:12:36;20.30;53.30
7077;DHT22;3579;48.956;9.154;2023-04-24T00:15:03;20.30;53.30
7077;DHT22;3579;48.956;9.154;2023-04-24T00:17:29;20.30;53.40
7077;DHT22;3579;48.956;9.154;2023-04-24T00:19:56;20.20;53.30
7077;DHT22;3579;48.956;9.154;2023-04-24T00:22:25;20.20;53.30
7077;DHT22;3579;48.956;9.154;2023-04-24T00:24:51;20.20;53.30
7077;DHT22;3579;48.956;9.154;2023-04-24T00:27:17;20.20;53.30
7077;DHT22;3579;48.956;9.154;2023-04-24T00:29:43;20.20;53.40
7077;DHT22;3579;48.956;9.154;2023-04-24T00:32:09;20.20;53.40
7077;DHT22;3579;48.956;9.154;2023-04-24T00:34:35;20.20;53.40
7077;DHT22;3579;48.956;9.154;2023-04-24T00:37:01;19.90;53.20
7077;DHT22;3579;48.956;9.154;2023-04-24T00:39:27;20.20;53.40
7077;DHT22;3579;48.956;9.154;2023-04-24T00:41:53;20.10;53.30
7077;DHT22;3579;48.956;9.154;2023-04-24T00:44:19;20.10;53.40
7077;DHT22;3579;48.956;9.154;2023-04-24T00:46:46;20.10;53.30
7077;DHT22;3579;48.956;9.154;2023-04-24T00:49:13;20.10;53.40
7077;DHT22;3579;48.956;9.154;2023-04-24T00:51:40;20.10;53.60
7077;DHT22;3579;48.956;9.154;2023-04-24T00:54:06;20.10;53.40
7077;DHT22;3579;48.956;9.154;2023-04-24T00:56:32;20.10;53.40
7077;DHT22;3579;48.956;9.154;2023-04-24T00:58:59;20.10;53.40
7077;DHT22;3579;48.956;9.154;2023-04-24T01:01:25;20.10;53.50
7077;DHT22;3579;48.956;9.154;2023-04-24T01:03:51;20.10;53.40
7077;DHT22;3579;48.956;9.154;2023-04-24T01:06:19;20.10;53.50
7077;DHT22;3579;48.956;9.154;2023-04-24T01:08:46;20.10;53.40
7077;DHT22;3579;48.956;9.154;2023-04-24T01:11:13;20.00;53.40
7077;DHT22;3579;48.956;9.154;2023-04-24T01:13:40;20.00;53.40
7077;DHT22;3579;48.956;9.154;2023-04-24T01:16:06;20.00;53.50
7077;DHT22;3579;48.956;9.154;2023-04-24T01:18:32;20.00;53.50
7077;DHT22;3579;48.956;9.154;2023-04-24T01:20:59;20.00;53.50
7077;DHT22;3579;48.956;9.154;2023-04-24T01:23:28;20.00;53.50
7077;DHT22;3579;48.956;9.154;2023-04-24T01:25:55;20.00;53.50
7077;DHT22;3579;48.956;9.154;2023-04-24T01:28:21;20.00;53.50
7077;DHT22;3579;48.956;9.154;2023-04-24T01:30:48;19.90;53.40
7077;DHT22;3579;48.956;9.154;2023-04-24T01:33:14;20.00;53.50
7077;DHT22;3579;48.956;9.154;2023-04-24T01:35:40;20.00;53.50
7077;DHT22;3579;48.956;9.154;2023-04-24T01:38:14;19.90;53.50
7077;DHT22;3579;48.956;9.154;2023-04-24T01:40:40;19.90;53.50
7077;DHT22;3579;48.956;9.154;2023-04-24T01:43:07;19.90;53.50
7077;DHT22;3579;48.956;9.154;2023-04-24T01:45:33;19.90;53.50
7077;DHT22;3579;48.956;9.154;2023-04-24T01:48:00;19.90;53.50
7077;DHT22;3579;48.956;9.154;2023-04-24T01:50:26;19.90;53.50
7077;DHT22;3579;48.956;9.154;2023-04-24T01:52:52;19.90;53.50
7077;DHT22;3579;48.956;9.154;2023-04-24T01:55:18;19.80;53.50
7077;DHT22;3579;48.956;9.154;2023-04-24T01:57:44;19.80;53.50
7077;DHT22;3579;48.956;9.154;2023-04-24T02:00:10;19.80;53.60
7077;DHT22;3579;48.956;9.154;2023-04-24T02:02:40;19.80;53.60
7077;DHT22;3579;48.956;9.154;2023-04-24T02:05:08;19.80;53.60
7077;DHT22;3579;48.956;9.154;2023-04-24T02:07:34;19.80;53.20
7077;DHT22;3579;48.956;9.154;2023-04-24T02:10:00;19.80;53.60
7077;DHT22;3579;48.956;9.154;2023-04-24T02:12:26;18.90;52.80
7077;DHT22;3579;48.956;9.154;2023-04-24T02:14:52;19.80;53.60
7077;DHT22;3579;48.956;9.154;2023-04-24T02:17:18;19.80;53.60
7077;DHT22;3579;48.956;9.154;2023-04-24T02:19:45;19.70;53.60
7077;DHT22;3579;48.956;9.154;2023-04-24T02:22:11;19.80;53.70
7077;DHT22;3579;48.956;9.154;2023-04-24T02:24:38;19.70;53.60
7077;DHT22;3579;48.956;9.154;2023-04-24T02:27:04;19.70;53.60
7077;DHT22;3579;48.956;9.154;2023-04-24T02:29:30;19.70;53.60
7077;DHT22;3579;48.956;9.154;2023-04-24T02:31:56;19.70;53.60
7077;DHT22;3579;48.956;9.154;2023-04-24T02:34:22;19.70;53.60
7077;DHT22;3579;48.956;9.154;2023-04-24T02:36:49;19.60;53.60
7077;DHT22;3579;48.956;9.154;2023-04-24T02:39:15;19.70;53.70
7077;DHT22;3579;48.956;9.154;2023-04-24T02:41:44;19.70;53.70
7077;DHT22;3579;48.956;9.154;2023-04-24T02:44:10;19.70;53.70
7077;DHT22;3579;48.956;9.154;2023-04-24T02:46:36;19.70;53.70
7077;DHT22;3579;48.956;9.154;2023-04-24T02:49:02;19.60;53.60
7077;DHT22;3579;48.956;9.154;2023-04-24T02:51:29;19.70;53.70
7077;DHT22;3579;48.956;9.154;2023-04-24T02:53:55;19.60;53.70
7077;DHT22;3579;48.956;9.154;2023-04-24T02:56:21;19.60;53.60
7077;DHT22;3579;48.956;9.154;2023-04-24T02:58:47;19.60;53.70
7077;DHT22;3579;48.956;9.154;2023-04-24T03:01:13;19.60;53.70
7077;DHT22;3579;48.956;9.154;2023-04-24T03:03:39;19.60;53.70
7077;DHT22;3579;48.956;9.154;2023-04-24T03:06:06;19.60;53.70
7077;DHT22;3579;48.956;9.154;2023-04-24T03:08:34;19.60;53.70
7077;DHT22;3579;48.956;9.154;2023-04-24T03:11:00;19.60;53.70
7077;DHT22;3579;48.956;9.154;2023-04-24T03:13:26;19.60;53.80
7077;DHT22;3579;48.956;9.154;2023-04-24T03:15:52;19.60;53.80
7077;DHT22;3579;48.956;9.154;2023-04-24T03:18:19;19.50;53.70
7077;DHT22;3579;48.956;9.154;2023-04-24T03:20:46;19.60;53.80
7077;DHT22;3579;48.956;9.154;2023-04-24T03:23:13;19.50;53.70
7077;DHT22;3579;48.956;9.154;2023-04-24T03:25:39;19.50;53.70
7077;DHT22;3579;48.956;9.154;2023-04-24T03:28:05;19.50;53.70
7077;DHT22;3579;48.956;9.154;2023-04-24T03:30:31;19.50;53.70
7077;DHT22;3579;48.956;9.154;2023-04-24T03:32:57;19.50;53.70
7077;DHT22;3579;48.956;9.154;2023-04-24T03:35:23;19.50;53.80
7077;DHT22;3579;48.956;9.154;2023-04-24T03:37:49;19.50;53.80
7077;DHT22;3579;48.956;9.154;2023-04-24T03:40:15;19.40;53.70
7077;DHT22;3579;48.956;9.154;2023-04-24T03:42:41;19.40;53.70
7077;DHT22;3579;48.956;9.154;2023-04-24T03:45:07;19.40;53.80
7077;DHT22;3579;48.956;9.154;2023-04-24T03:47:34;19.40;53.80
7077;DHT22;3579;48.956;9.154;2023-04-24T03:50:01;19.40;53.80
7077;DHT22;3579;48.956;9.154;2023-04-24T03:52:27;19.40;53.80
7077;DHT22;3579;48.956;9.154;2023-04-24T03:54:53;19.40;53.80
7077;DHT22;3579;48.956;9.154;2023-04-24T03:57:19;19.40;53.80
7077;DHT22;3579;48.956;9.154;2023-04-24T03:59:45;19.40;53.90
7077;DHT22;3579;48.956;9.154;2023-04-24T04:02:11;19.40;53.90
7077;DHT22;3579;48.956;9.154;2023-04-24T04:04:37;19.40;53.90
7077;DHT22;3579;48.956;9.154;2023-04-24T04:07:03;19.40;53.90
7077;DHT22;3579;48.956;9.154;2023-04-24T04:09:29;19.40;53.90
7077;DHT22;3579;48.956;9.154;2023-04-24T04:11:55;19.40;53.90
7077;DHT22;3579;48.956;9.154;2023-04-24T04:14:22;19.30;53.80
7077;DHT22;3579;48.956;9.154;2023-04-24T04:16:48;19.30;53.90
7077;DHT22;3579;48.956;9.154;2023-04-24T04:19:14;19.40;53.90
7077;DHT22;3579;48.956;9.154;2023-04-24T04:21:39;19.30;53.90
7077;DHT22;3579;48.956;9.154;2023-04-24T04:24:06;19.30;53.90
7077;DHT22;3579;48.956;9.154;2023-04-24T04:26:33;19.30;53.90
7077;DHT22;3579;48.956;9.154;2023-04-24T04:28:59;19.30;53.90
7077;DHT22;3579;48.956;9.154;2023-04-24T04:31:29;19.30;53.90
7077;DHT22;3579;48.956;9.154;2023-04-24T04:33:56;19.20;53.90
7077;DHT22;3579;48.956;9.154;2023-04-24T04:36:22;19.30;54.00
7077;DHT22;3579;48.956;9.154;2023-04-24T04:38:49;19.30;54.50
7077;DHT22;3579;48.956;9.154;2023-04-24T04:41:15;19.30;54.00
7077;DHT22;3579;48.956;9.154;2023-04-24T04:43:43;19.40;54.10
7077;DHT22;3579;48.956;9.154;2023-04-24T04:46:09;19.20;53.90
7077;DHT22;3579;48.956;9.154;2023-04-24T04:48:36;19.30;54.00
7077;DHT22;3579;48.956;9.154;2023-04-24T04:51:03;19.20;53.90
7077;DHT22;3579;48.956;9.154;2023-04-24T04:53:29;19.30;54.00
7077;DHT22;3579;48.956;9.154;2023-04-24T04:55:55;19.20;53.90
7077;DHT22;3579;48.956;9.154;2023-04-24T04:58:22;19.20;53.90
7077;DHT22;3579;48.956;9.154;2023-04-24T05:00:48;19.20;54.00
7077;DHT22;3579;48.956;9.154;2023-04-24T05:03:14;19.20;53.90
7077;DHT22;3579;48.956;9.154;2023-04-24T05:05:40;19.20;54.00
7077;DHT22;3579;48.956;9.154;2023-04-24T05:08:07;19.20;54.00
7077;DHT22;3579;48.956;9.154;2023-04-24T05:10:34;18.90;53.70
7077;DHT22;3579;48.956;9.154;2023-04-24T05:13:00;19.20;54.00
7077;DHT22;3579;48.956;9.154;2023-04-24T05:15:26;19.20;54.00
7077;DHT22;3579;48.956;9.154;2023-04-24T05:17:52;19.20;54.00
7077;DHT22;3579;48.956;9.154;2023-04-24T05:20:19;19.20;53.90
7077;DHT22;3579;48.956;9.154;2023-04-24T05:22:45;19.20;54.00
7077;DHT22;3579;48.956;9.154;2023-04-24T05:25:11;19.20;53.90
7077;DHT22;3579;48.956;9.154;2023-04-24T05:27:38;19.20;53.90
7077;DHT22;3579;48.956;9.154;2023-04-24T05:30:05;19.20;53.90
7077;DHT22;3579;48.956;9.154;2023-04-24T05:32:31;19.20;53.90
7077;DHT22;3579;48.956;9.154;2023-04-24T05:34:57;19.20;53.90
7077;DHT22;3579;48.956;9.154;2023-04-24T05:37:23;19.20;54.40
7077;DHT22;3579;48.956;9.154;2023-04-24T05:39:49;19.20;53.80
7077;DHT22;3579;48.956;9.154;2023-04-24T05:42:15;19.20;53.80
7077;DHT22;3579;48.956;9.154;2023-04-24T05:44:41;19.20;53.80
7077;DHT22;3579;48.956;9.154;2023-04-24T05:47:08;19.20;53.80
7077;DHT22;3579;48.956;9.154;2023-04-24T05:49:34;19.30;53.80
7077;DHT22;3579;48.956;9.154;2023-04-24T05:52:00;19.30;53.80
7077;DHT22;3579;48.956;9.154;2023-04-24T05:54:26;19.40;53.70
7077;DHT22;3579;48.956;9.154;2023-04-24T05:56:52;19.70;53.10
7077;DHT22;3579;48.956;9.154;2023-04-24T05:59:20;20.30;52.50
7077;DHT22;3579;48.956;9.154;2023-04-24T06:01:46;20.70;51.70
7077;DHT22;3579;48.956;9.154;2023-04-24T06:04:12;20.40;51.80
7077;DHT22;3579;48.956;9.154;2023-04-24T06:06:39;20.20;52.00
7077;DHT22;3579;48.956;9.154;2023-04-24T06:09:07;20.10;52.30
7077;DHT22;3579;48.956;9.154;2023-04-24T06:11:33;20.10;52.50
7077;DHT22;3579;48.956;9.154;2023-04-24T06:13:59;20.80;52.10
7077;DHT22;3579;48.956;9.154;2023-04-24T06:16:25;21.70;50.50
7077;DHT22;3579;48.956;9.154;2023-04-24T06:18:51;22.40;49.50
7077;DHT22;3579;48.956;9.154;2023-04-24T06:21:17;22.90;48.60
7077;DHT22;3579;48.956;9.154;2023-04-24T06:23:43;23.20;47.80
7077;DHT22;3579;48.956;9.154;2023-04-24T06:26:09;23.40;47.30
7077;DHT22;3579;48.956;9.154;2023-04-24T06:28:35;23.60;47.10
7077;DHT22;3579;48.956;9.154;2023-04-24T06:31:01;23.60;47.10
7077;DHT22;3579;48.956;9.154;2023-04-24T06:33:27;22.70;46.80
7077;DHT22;3579;48.956;9.154;2023-04-24T06:35:53;21.50;49.00
7077;DHT22;3579;48.956;9.154;2023-04-24T06:38:20;20.70;49.60
7077;DHT22;3579;48.956;9.154;2023-04-24T06:40:46;20.40;50.50
7077;DHT22;3579;48.956;9.154;2023-04-24T06:43:12;20.20;50.50
7077;DHT22;3579;48.956;9.154;2023-04-24T06:45:38;19.90;50.80
7077;DHT22;3579;48.956;9.154;2023-04-24T06:48:05;19.80;50.80
7077;DHT22;3579;48.956;9.154;2023-04-24T06:50:31;19.80;50.80
7077;DHT22;3579;48.956;9.154;2023-04-24T06:52:57;19.50;50.90
7077;DHT22;3579;48.956;9.154;2023-04-24T06:55:23;19.50;51.10
7077;DHT22;3579;48.956;9.154;2023-04-24T06:57:49;19.90;51.40
7077;DHT22;3579;48.956;9.154;2023-04-24T07:00:15;20.20;51.50
7077;DHT22;3579;48.956;9.154;2023-04-24T07:02:41;20.40;51.60
7077;DHT22;3579;48.956;9.154;2023-04-24T07:05:08;20.50;51.40
7077;DHT22;3579;48.956;9.154;2023-04-24T07:07:34;20.60;51.50
7077;DHT22;3579;48.956;9.154;2023-04-24T07:10:00;20.60;51.50
7077;DHT22;3579;48.956;9.154;2023-04-24T07:12:26;20.70;51.60
7077;DHT22;3579;48.956;9.154;2023-04-24T07:14:52;20.70;51.60
7077;DHT22;3579;48.956;9.154;2023-04-24T07:17:18;20.80;51.80
7077;DHT22;3579;48.956;9.154;2023-04-24T07:19:44;20.90;52.00
7077;DHT22;3579;48.956;9.154;2023-04-24T07:22:11;20.90;52.00
7077;DHT22;3579;48.956;9.154;2023-04-24T07:24:43;21.00;52.10
7077;DHT22;3579;48.956;9.154;2023-04-24T07:27:10;21.00;52.10
7077;DHT22;3579;48.956;9.154;2023-04-24T07:29:36;21.10;51.90
7077;DHT22;3579;48.956;9.154;2023-04-24T07:32:02;21.10;52.20
7077;DHT22;3579;48.956;9.154;2023-04-24T07:34:28;21.10;52.00
7077;DHT22;3579;48.956;9.154;2023-04-24T07:36:54;21.20;52.30
7077;DHT22;3579;48.956;9.154;2023-04-24T07:39:21;21.30;52.70
7077;DHT22;3579;48.956;9.154;2023-04-24T07:41:47;21.30;52.10
7077;DHT22;3579;48.956;9.154;2023-04-24T07:44:13;21.30;52.10
7077;DHT22;3579;48.956;9.154;2023-04-24T07:46:39;21.30;52.70
7077;DHT22;3579;48.956;9.154;2023-04-24T07:49:05;21.40;52.20
7077;DHT22;3579;48.956;9.154;2023-04-24T07:51:32;21.40;52.40
7077;DHT22;3579;48.956;9.154;2023-04-24T07:54:06;21.40;52.00
7077;DHT22;3579;48.956;9.154;2023-04-24T07:56:33;21.50;52.40
7077;DHT22;3579;48.956;9.154;2023-04-24T07:58:59;21.50;52.10
7077;DHT22;3579;48.956;9.154;2023-04-24T08:01:27;21.50;52.30
7077;DHT22;3579;48.956;9.154;2023-04-24T08:03:53;21.60;52.20
7077;DHT22;3579;48.956;9.154;2023-04-24T08:06:19;21.60;52.30
7077;DHT22;3579;48.956;9.154;2023-04-24T08:08:45;21.70;52.60
7077;DHT22;3579;48.956;9.154;2023-04-24T08:11:12;21.70;53.30
7077;DHT22;3579;48.956;9.154;2023-04-24T08:13:38;21.80;53.20
7077;DHT22;3579;48.956;9.154;2023-04-24T08:16:04;21.80;53.00
7077;DHT22;3579;48.956;9.154;2023-04-24T08:18:30;21.90;52.80
7077;DHT22;3579;48.956;9.154;2023-04-24T08:20:56;21.90;52.60
7077;DHT22;3579;48.956;9.154;2023-04-24T08:23:27;21.90;52.60
7077;DHT22;3579;48.956;9.154;2023-04-24T08:25:54;22.00;52.70
7077;DHT22;3579;48.956;9.154;2023-04-24T08:28:20;22.00;52.70
7077;DHT22;3579;48.956;9.154;2023-04-24T08:30:46;22.00;52.70
7077;DHT22;3579;48.956;9.154;2023-04-24T08:33:14;22.00;53.60
7077;DHT22;3579;48.956;9.154;2023-04-24T08:35:40;22.10;52.80
7077;DHT22;3579;48.956;9.154;2023-04-24T08:38:07;22.10;53.70
7077;DHT22;3579;48.956;9.154;2023-04-24T08:40:34;22.10;52.90
7077;DHT22;3579;48.956;9.154;2023-04-24T08:43:01;22.20;52.70
7077;DHT22;3579;48.956;9.154;2023-04-24T08:45:27;22.20;52.90
7077;DHT22;3579;48.956;9.154;2023-04-24T08:47:53;22.20;52.80
7077;DHT22;3579;48.956;9.154;2023-04-24T08:50:22;22.20;53.10
7077;DHT22;3579;48.956;9.154;2023-04-24T08:52:52;22.30;53.40
7077;DHT22;3579;48.956;9.154;2023-04-24T08:55:24;22.40;53.10
7077;DHT22;3579;48.956;9.154;2023-04-24T08:57:51;22.50;53.30
7077;DHT22;3579;48.956;9.154;2023-04-24T09:00:22;22.50;53.10
7077;DHT22;3579;48.956;9.154;2023-04-24T09:02:49;22.60;53.30
7077;DHT22;3579;48.956;9.154;2023-04-24T09:05:21;22.60;53.70
7077;DHT22;3579;48.956;9.154;2023-04-24T09:07:54;22.60;54.10
7077;DHT22;3579;48.956;9.154;2023-04-24T09:10:24;22.60;53.50
7077;DHT22;3579;48.956;9.154;2023-04-24T09:12:51;22.60;53.40
7077;DHT22;3579;48.956;9.154;2023-04-24T09:15:21;22.60;53.30
7077;DHT22;3579;48.956;9.154;2023-04-24T09:17:47;22.60;53.60
7077;DHT22;3579;48.956;9.154;2023-04-24T09:20:13;22.60;53.80
7077;DHT22;3579;48.956;9.154;2023-04-24T09:22:39;22.70;53.40
7077;DHT22;3579;48.956;9.154;2023-04-24T09:25:07;22.70;53.30
7077;DHT22;3579;48.956;9.154;2023-04-24T09:27:34;22.80;53.40
7077;DHT22;3579;48.956;9.154;2023-04-24T09:30:02;22.90;53.40
7077;DHT22;3579;48.956;9.154;2023-04-24T09:32:28;22.90;53.40
7077;DHT22;3579;48.956;9.154;2023-04-24T09:35:12;22.90;53.20
7077;DHT22;3579;48.956;9.154;2023-04-24T09:42:40;23.00;53.20
7077;DHT22;3579;48.956;9.154;2023-04-24T09:45:11;23.10;53.40
7077;DHT22;3579;48.956;9.154;2023-04-24T09:47:38;23.10;53.70
7077;DHT22;3579;48.956;9.154;2023-04-24T09:50:15;23.10;53.70
7077;DHT22;3579;48.956;9.154;2023-04-24T09:52:44;23.10;53.80
7077;DHT22;3579;48.956;9.154;2023-04-24T09:55:13;23.10;53.70
7077;DHT22;3579;48.956;9.154;2023-04-24T09:57:58;23.10;53.60
7077;DHT22;3579;48.956;9.154;2023-04-24T10:00:28;23.20;54.20
7077;DHT22;3579;48.956;9.154;2023-04-24T10:02:55;23.20;53.70
7077;DHT22;3579;48.956;9.154;2023-04-24T10:05:32;23.20;53.40
7077;DHT22;3579;48.956;9.154;2023-04-24T10:08:04;23.30;53.70
7077;DHT22;3579;48.956;9.154;2023-04-24T10:10:31;23.30;53.40
7077;DHT22;3579;48.956;9.154;2023-04-24T10:12:58;23.30;53.70
7077;DHT22;3579;48.956;9.154;2023-04-24T10:15:26;23.30;53.70
7077;DHT22;3579;48.956;9.154;2023-04-24T10:17:52;23.30;53.60
7077;DHT22;3579;48.956;9.154;2023-04-24T10:20:23;23.30;53.50
7077;DHT22;3579;48.956;9.154;2023-04-24T10:22:51;23.20;53.50
7077;DHT22;3579;48.956;9.154;2023-04-24T10:25:24;21.90;52.90
7077;DHT22;3579;48.956;9.154;2023-04-24T10:27:51;23.20;54.10
7077;DHT22;3579;48.956;9.154;2023-04-24T10:30:19;23.20;53.90
7077;DHT22;3579;48.956;9.154;2023-04-24T10:32:46;23.20;54.30
7077;DHT22;3579;48.956;9.154;2023-04-24T10:35:13;23.20;53.90
7077;DHT22;3579;48.956;9.154;2023-04-24T10:37:44;23.20;54.50
7077;DHT22;3579;48.956;9.154;2023-04-24T10:40:12;23.20;54.40
7077;DHT22;3579;48.956;9.154;2023-04-24T10:42:41;23.20;54.00
7077;DHT22;3579;48.956;9.154;2023-04-24T10:45:22;23.20;54.10
7077;DHT22;3579;48.956;9.154;2023-04-24T10:47:59;23.00;51.40
7077;DHT22;3579;48.956;9.154;2023-04-24T10:50:28;22.50;48.60
7077;DHT22;3579;48.956;9.154;2023-04-24T10:53:06;22.30;48.20
7077;DHT22;3579;48.956;9.154;2023-04-24T10:58:16;22.10;46.20
7077;DHT22;3579;48.956;9.154;2023-04-24T11:00:43;21.90;45.50
7077;DHT22;3579;48.956;9.154;2023-04-24T11:03:33;21.70;44.40
7077;DHT22;3579;48.956;9.154;2023-04-24T11:06:05;21.80;44.30
7077;DHT22;3579;48.956;9.154;2023-04-24T11:08:44;21.90;44.20
7077;DHT22;3579;48.956;9.154;2023-04-24T11:11:12;21.90;44.60
7077;DHT22;3579;48.956;9.154;2023-04-24T11:16:29;21.90;44.40
7077;DHT22;3579;48.956;9.154;2023-04-24T11:25:01;21.70;43.60
7077;DHT22;3579;48.956;9.154;2023-04-24T11:27:34;21.70;43.40
7077;DHT22;3579;48.956;9.154;2023-04-24T11:30:04;21.60;42.90
7077;DHT22;3579;48.956;9.154;2023-04-24T11:37:34;21.40;42.80
7077;DHT22;3579;48.956;9.154;2023-04-24T11:40:01;21.30;42.30
7077;DHT22;3579;48.956;9.154;2023-04-24T11:42:28;21.30;42.70
7077;DHT22;3579;48.956;9.154;2023-04-24T11:44:55;21.30;42.40
7077;DHT22;3579;48.956;9.154;2023-04-24T11:47:31;21.30;42.10
7077;DHT22;3579;48.956;9.154;2023-04-24T11:50:00;21.30;42.20
7077;DHT22;3579;48.956;9.154;2023-04-24T11:52:33;21.40;42.00
7077;DHT22;3579;48.956;9.154;2023-04-24T11:55:02;21.40;42.30
7077;DHT22;3579;48.956;9.154;2023-04-24T11:57:30;21.40;42.30
7077;DHT22;3579;48.956;9.154;2023-04-24T12:00:01;21.30;42.00
7077;DHT22;3579;48.956;9.154;2023-04-24T12:02:28;21.50;43.00
7077;DHT22;3579;48.956;9.154;2023-04-24T12:04:54;21.70;43.40
7077;DHT22;3579;48.956;9.154;2023-04-24T12:07:22;22.00;43.50
7077;DHT22;3579;48.956;9.154;2023-04-24T12:12:17;22.20;44.10
7077;DHT22;3579;48.956;9.154;2023-04-24T12:14:57;22.40;44.30
7077;DHT22;3579;48.956;9.154;2023-04-24T12:17:28;22.40;44.70
7077;DHT22;3579;48.956;9.154;2023-04-24T12:20:03;22.50;45.30
7077;DHT22;3579;48.956;9.154;2023-04-24T12:22:50;21.00;44.30
7077;DHT22;3579;48.956;9.154;2023-04-24T12:25:18;22.60;45.70
7077;DHT22;3579;48.956;9.154;2023-04-24T12:27:45;22.60;45.70
7077;DHT22;3579;48.956;9.154;2023-04-24T12:30:16;22.50;45.80
7077;DHT22;3579;48.956;9.154;2023-04-24T12:32:51;22.60;46.60
7077;DHT22;3579;48.956;9.154;2023-04-24T12:35:22;22.60;46.80
7077;DHT22;3579;48.956;9.154;2023-04-24T12:37:49;22.60;46.50
7077;DHT22;3579;48.956;9.154;2023-04-24T12:40:16;22.60;46.90
7077;DHT22;3579;48.956;9.154;2023-04-24T12:42:44;22.70;46.80
7077;DHT22;3579;48.956;9.154;2023-04-24T12:45:11;22.70;46.70
7077;DHT22;3579;48.956;9.154;2023-04-24T12:47:41;22.80;46.90
7077;DHT22;3579;48.956;9.154;2023-04-24T12:50:09;22.80;47.00
7077;DHT22;3579;48.956;9.154;2023-04-24T12:52:36;22.80;47.00
7077;DHT22;3579;48.956;9.154;2023-04-24T12:55:03;22.90;47.10
7077;DHT22;3579;48.956;9.154;2023-04-24T12:57:31;22.90;47.10
7077;DHT22;3579;48.956;9.154;2023-04-24T12:59:58;22.90;47.20
7077;DHT22;3579;48.956;9.154;2023-04-24T13:02:26;23.00;47.40
7077;DHT22;3579;48.956;9.154;2023-04-24T13:04:53;23.00;47.40
7077;DHT22;3579;48.956;9.154;2023-04-24T13:07:19;23.10;47.60
7077;DHT22;3579;48.956;9.154;2023-04-24T13:09:47;23.10;47.60
7077;DHT22;3579;48.956;9.154;2023-04-24T13:12:13;23.00;46.80
7077;DHT22;3579;48.956;9.154;2023-04-24T13:14:40;22.60;45.40
7077;DHT22;3579;48.956;9.154;2023-04-24T13:17:06;22.40;44.90
7077;DHT22;3579;48.956;9.154;2023-04-24T13:19:37;22.40;45.50
7077;DHT22;3579;48.956;9.154;2023-04-24T13:22:03;22.60;45.90
7077;DHT22;3579;48.956;9.154;2023-04-24T13:24:30;22.70;46.20
7077;DHT22;3579;48.956;9.154;2023-04-24T13:26:57;22.90;46.30
7077;DHT22;3579;48.956;9.154;2023-04-24T13:29:24;22.90;46.20
7077;DHT22;3579;48.956;9.154;2023-04-24T13:31:50;23.00;46.40
7077;DHT22;3579;48.956;9.154;2023-04-24T13:34:20;23.00;46.40
7077;DHT22;3579;48.956;9.154;2023-04-24T13:36:47;23.10;46.60
7077;DHT22;3579;48.956;9.154;2023-04-24T13:39:13;23.10;46.60
7077;DHT22;3579;48.956;9.154;2023-04-24T13:41:39;23.20;46.80
7077;DHT22;3579;48.956;9.154;2023-04-24T13:44:06;23.20;47.20
7077;DHT22;3579;48.956;9.154;2023-04-24T13:46:32;23.20;47.40
7077;DHT22;3579;48.956;9.154;2023-04-24T13:48:58;23.30;47.40
7077;DHT22;3579;48.956;9.154;2023-04-24T13:51:28;23.30;47.20
7077;DHT22;3579;48.956;9.154;2023-04-24T13:53:54;23.30;47.30
7077;DHT22;3579;48.956;9.154;2023-04-24T13:56:21;23.30;47.40
7077;DHT22;3579;48.956;9.154;2023-04-24T13:58:48;23.30;47.40
7077;DHT22;3579;48.956;9.154;2023-04-24T14:01:14;23.30;47.40
7077;DHT22;3579;48.956;9.154;2023-04-24T14:03:42;23.40;47.60
7077;DHT22;3579;48.956;9.154;2023-04-24T14:06:12;23.40;47.60
7077;DHT22;3579;48.956;9.154;2023-04-24T14:08:38;23.40;47.60
7077;DHT22;3579;48.956;9.154;2023-04-24T14:11:04;23.40;47.80
7077;DHT22;3579;48.956;9.154;2023-04-24T14:13:30;23.40;48.00
7077;DHT22;3579;48.956;9.154;2023-04-24T14:15:56;23.40;48.10
7077;DHT22;3579;48.956;9.154;2023-04-24T14:18:23;23.40;48.30
7077;DHT22;3579;48.956;9.154;2023-04-24T14:20:49;23.40;48.40
7077;DHT22;3579;48.956;9.154;2023-04-24T14:23:15;23.40;48.40
7077;DHT22;3579;48.956;9.154;2023-04-24T14:25:41;23.40;48.50
7077;DHT22;3579;48.956;9.154;2023-04-24T14:28:08;23.40;48.70
7077;DHT22;3579;48.956;9.154;2023-04-24T14:30:34;23.50;48.80
7077;DHT22;3579;48.956;9.154;2023-04-24T14:33:03;23.50;49.10
7077;DHT22;3579;48.956;9.154;2023-04-24T14:35:29;23.60;49.10
7077;DHT22;3579;48.956;9.154;2023-04-24T14:37:58;23.50;49.40
7077;DHT22;3579;48.956;9.154;2023-04-24T14:40:24;23.60;49.20
7077;DHT22;3579;48.956;9.154;2023-04-24T14:42:51;23.60;49.10
7077;DHT22;3579;48.956;9.154;2023-04-24T14:45:18;23.60;49.20
7077;DHT22;3579;48.956;9.154;2023-04-24T14:47:45;23.60;49.10
7077;DHT22;3579;48.956;9.154;2023-04-24T14:50:11;23.60;49.30
7077;DHT22;3579;48.956;9.154;2023-04-24T14:52:38;23.60;49.30
7077;DHT22;3579;48.956;9.154;2023-04-24T14:55:05;23.60;49.40
7077;DHT22;3579;48.956;9.154;2023-04-24T14:57:33;23.60;49.60
7077;DHT22;3579;48.956;9.154;2023-04-24T14:59:59;23.60;49.70
7077;DHT22;3579;48.956;9.154;2023-04-24T15:02:25;23.60;50.40
7077;DHT22;3579;48.956;9.154;2023-04-24T15:04:51;23.60;50.50
7077;DHT22;3579;48.956;9.154;2023-04-24T15:07:17;23.60;50.30
7077;DHT22;3579;48.956;9.154;2023-04-24T15:09:43;23.60;50.70
7077;DHT22;3579;48.956;9.154;2023-04-24T15:12:09;23.50;48.50
7077;DHT22;3579;48.956;9.154;2023-04-24T15:14:38;23.40;48.70
7077;DHT22;3579;48.956;9.154;2023-04-24T15:17:04;23.30;48.00
7077;DHT22;3579;48.956;9.154;2023-04-24T15:19:31;23.20;47.80
7077;DHT22;3579;48.956;9.154;2023-04-24T15:21:57;23.20;47.80
7077;DHT22;3579;48.956;9.154;2023-04-24T15:24:23;23.20;48.30
7077;DHT22;3579;48.956;9.154;2023-04-24T15:26:50;23.10;48.00
7077;DHT22;3579;48.956;9.154;2023-04-24T15:29:16;23.00;48.10
7077;DHT22;3579;48.956;9.154;2023-04-24T15:31:42;23.00;48.20
7077;DHT22;3579;48.956;9.154;2023-04-24T15:34:08;22.90;47.80
7077;DHT22;3579;48.956;9.154;2023-04-24T15:36:34;22.90;47.70
7077;DHT22;3579;48.956;9.154;2023-04-24T15:39:02;23.00;47.40
7077;DHT22;3579;48.956;9.154;2023-04-24T15:41:28;23.00;47.20
7077;DHT22;3579;48.956;9.154;2023-04-24T15:43:54;23.00;47.30
7077;DHT22;3579;48.956;9.154;2023-04-24T15:46:20;23.00;47.50
7077;DHT22;3579;48.956;9.154;2023-04-24T15:48:46;23.00;47.50
7077;DHT22;3579;48.956;9.154;2023-04-24T15:51:12;23.00;47.40
7077;DHT22;3579;48.956;9.154;2023-04-24T15:53:38;23.00;47.50
7077;DHT22;3579;48.956;9.154;2023-04-24T15:56:04;23.00;47.60
7077;DHT22;3579;48.956;9.154;2023-04-24T15:58:30;23.00;47.70
7077;DHT22;3579;48.956;9.154;2023-04-24T16:00:57;22.90;47.60
7077;DHT22;3579;48.956;9.154;2023-04-24T16:03:23;22.90;47.60
7077;DHT22;3579;48.956;9.154;2023-04-24T16:05:49;22.90;47.40
7077;DHT22;3579;48.956;9.154;2023-04-24T16:08:15;22.90;47.80
7077;DHT22;3579;48.956;9.154;2023-04-24T16:10:42;22.80;47.70
7077;DHT22;3579;48.956;9.154;2023-04-24T16:13:09;22.80;47.80
7077;DHT22;3579;48.956;9.154;2023-04-24T16:15:35;22.80;47.80
7077;DHT22;3579;48.956;9.154;2023-04-24T16:18:01;22.80;47.90
7077;DHT22;3579;48.956;9.154;2023-04-24T16:20:27;22.80;47.90
7077;DHT22;3579;48.956;9.154;2023-04-24T16:22:53;22.70;47.80
7077;DHT22;3579;48.956;9.154;2023-04-24T16:25:19;22.70;47.80